Time;durP1;ratioP1;P1;durP2;ratioP2;P2;SDS_P1;SDS_P2;PMS_P1;PMS_P2;Temp;Humidity;BMP_temperature;BMP_pressure;BME280_temperature;BME280_humidity;BME280_pressure;Samples;Min_cycle;Max_cycle;Signal;HPM_P1;HPM_P2
2023/09/05 00:00:39;;;;;;;5.47;4.20;;;;;;;29.30;80.63;100610.81;4906629;28;65797;-35
2023/09/05 00:03:09;;;;;;;6.32;5.22;;;;;;;29.32;80.56;100619.53;4899765;28;70007;-35
2023/09/05 00:05:40;;;;;;;6.32;5.60;;;;;;;29.34;80.69;100612.06;4853404;28;66029;-36
2023/09/05 00:08:10;;;;;;;5.25;4.25;;;;;;;29.26;79.82;100592.56;4912605;28;70222;-35
2023/09/05 00:10:44;;;;;;;5.75;4.18;;;;;;;29.39;80.24;100606.84;4901985;28;66723;-41
2023/09/05 00:13:15;;;;;;;6.38;3.63;;;;;;;29.38;77.48;100618.66;4868558;29;69975;-36
2023/09/05 00:15:46;;;;;;;8.43;4.30;;;;;;;29.39;81.92;100625.75;4919203;28;66460;-35
2023/09/05 00:18:16;;;;;;;3.67;3.38;;;;;;;29.43;80.25;100631.53;4919693;28;70037;-35
2023/09/05 00:20:46;;;;;;;4.80;3.90;;;;;;;29.46;80.54;100630.28;4920288;28;66218;-35
2023/09/05 00:23:16;;;;;;;3.95;3.72;;;;;;;29.48;80.97;100628.19;4920171;28;70623;-34
2023/09/05 00:25:46;;;;;;;6.88;4.25;;;;;;;29.54;80.77;100628.13;4916084;28;66048;-34
2023/09/05 00:28:19;;;;;;;9.68;4.13;;;;;;;29.58;80.97;100633.94;4914283;28;70063;-34
2023/09/05 00:30:49;;;;;;;4.72;4.32;;;;;;;29.64;78.21;100638.50;4919336;28;66219;-36
2023/09/05 00:33:19;;;;;;;4.85;4.30;;;;;;;29.63;79.58;100644.97;4922223;28;70165;-35
2023/09/05 00:35:53;;;;;;;6.53;4.25;;;;;;;29.67;80.40;100640.78;4911584;28;65708;-35
2023/09/05 00:38:23;;;;;;;4.10;3.70;;;;;;;29.64;80.50;100626.84;4914080;28;69658;-34
2023/09/05 00:40:53;;;;;;;7.20;4.03;;;;;;;29.68;80.12;100637.03;4917218;28;66748;-35
2023/09/05 00:43:23;;;;;;;7.28;3.88;;;;;;;29.69;80.09;100630.56;4903222;28;69808;-35
2023/09/05 00:45:56;;;;;;;3.95;3.70;;;;;;;29.73;79.68;100639.09;4913237;28;66193;-36
2023/09/05 00:48:30;;;;;;;3.65;3.35;;;;;;;29.75;78.76;100640.50;4898516;28;69364;-36
2023/09/05 00:51:01;;;;;;;4.78;3.65;;;;;;;29.75;79.05;100628.84;4912014;28;65542;-36
2023/09/05 00:53:32;;;;;;;5.50;3.75;;;;;;;29.86;78.52;100646.25;4889908;28;69311;-36
2023/09/05 00:56:02;;;;;;;4.00;3.70;;;;;;;29.90;78.18;100647.50;4900055;28;65863;-34
2023/09/05 00:58:32;;;;;;;7.63;3.47;;;;;;;29.92;78.46;100645.38;4918914;28;70321;-35
2023/09/05 01:01:02;;;;;;;3.00;2.80;;;;;;;29.96;78.77;100652.03;4906525;28;66021;-35
2023/09/05 01:03:32;;;;;;;6.70;3.50;;;;;;;29.98;78.05;100655.34;4917061;28;70017;-35
2023/09/05 01:06:09;;;;;;;2.75;2.55;;;;;;;29.67;78.02;100611.06;4918898;28;64987;-35
2023/09/05 01:09:00;;;;;;;3.25;3.05;;;;;;;29.86;78.08;100651.66;4917876;28;69909;-34
2023/09/05 01:11:31;;;;;;;2.83;2.63;;;;;;;30.01;77.88;100677.34;4908669;28;66579;-36
2023/09/05 01:14:01;;;;;;;4.78;2.50;;;;;;;30.02;77.28;100692.53;4908199;28;68757;-35
2023/09/05 01:16:31;;;;;;;2.50;2.30;;;;;;;30.05;77.56;100694.78;4920467;28;65475;-35
2023/09/05 01:19:01;;;;;;;2.65;2.45;;;;;;;30.08;77.14;100709.75;4912984;28;69984;-36
2023/09/05 01:21:39;;;;;;;2.67;2.47;;;;;;;30.09;77.34;100711.44;4911212;28;67030;-35
2023/09/05 01:24:16;;;;;;;2.78;2.58;;;;;;;30.09;77.25;100716.84;4895697;28;70016;-35
2023/09/05 01:26:51;;;;;;;5.07;2.80;;;;;;;30.11;77.58;100722.84;4917645;28;66896;-37
2023/09/05 01:29:30;;;;;;;3.47;2.45;;;;;;;30.08;77.57;100720.56;4898245;28;70630;-37
2023/09/05 01:32:03;;;;;;;2.38;2.17;;;;;;;30.16;77.61;100735.72;4912737;28;65844;-37
2023/09/05 01:34:34;;;;;;;2.42;2.22;;;;;;;30.18;77.80;100737.16;4915010;28;69756;-35
2023/09/05 01:37:04;;;;;;;3.72;2.88;;;;;;;30.22;78.23;100727.56;4910562;28;65969;-36
2023/09/05 01:39:34;;;;;;;4.65;2.35;;;;;;;30.24;77.82;100741.72;4907120;28;70317;-35
2023/09/05 01:42:05;;;;;;;2.85;2.65;;;;;;;30.20;77.81;100737.78;4907636;28;65565;-36
2023/09/05 01:44:36;;;;;;;2.75;2.55;;;;;;;30.26;77.87;100734.22;4914481;28;70043;-39
2023/09/05 01:47:07;;;;;;;3.25;2.95;;;;;;;30.24;77.69;100739.00;4904298;28;65910;-39
2023/09/05 01:49:37;;;;;;;2.95;2.75;;;;;;;30.26;77.72;100739.63;4899321;28;69994;-36
2023/09/05 01:52:08;;;;;;;2.88;2.67;;;;;;;30.32;77.71;100745.22;4911966;28;66341;-35
2023/09/05 01:54:41;;;;;;;2.88;2.67;;;;;;;30.25;77.92;100737.97;4894596;28;69601;-35
2023/09/05 01:57:11;;;;;;;2.90;2.60;;;;;;;30.34;77.72;100745.81;4917024;28;65378;-35
2023/09/05 01:59:41;;;;;;;3.38;3.00;;;;;;;30.36;77.84;100749.94;4902308;28;69896;-35
2023/09/05 02:02:11;;;;;;;3.85;2.65;;;;;;;30.35;77.73;100744.78;4898312;28;66775;-35
2023/09/05 02:04:41;;;;;;;3.30;2.83;;;;;;;30.37;78.23;100751.63;4908950;28;69782;-34
2023/09/05 02:07:12;;;;;;;3.10;2.78;;;;;;;30.40;77.99;100744.94;4897537;28;65816;-33
2023/09/05 02:09:41;;;;;;;5.47;2.95;;;;;;;30.40;77.74;100739.53;4916147;28;69895;-36
2023/09/05 02:12:12;;;;;;;4.07;2.17;;;;;;;30.44;77.54;100735.31;4892035;28;66942;-36
2023/09/05 02:14:47;;;;;;;3.05;2.67;;;;;;;30.42;77.89;100732.00;4914507;28;68973;-35
2023/09/05 02:17:20;;;;;;;2.85;2.17;;;;;;;30.20;77.95;100685.53;4902330;28;66457;-36
2023/09/05 02:19:51;;;;;;;2.25;2.13;;;;;;;30.49;78.00;100732.78;4887168;28;69840;-36
2023/09/05 02:22:21;;;;;;;1.98;1.88;;;;;;;30.47;77.57;100730.28;4898316;28;66214;-37
2023/09/05 02:24:51;;;;;;;2.05;1.95;;;;;;;30.50;77.52;100734.44;4907835;28;69538;-36
2023/09/05 02:27:21;;;;;;;2.38;1.88;;;;;;;30.53;77.89;100735.88;4917835;28;66287;-35
2023/09/05 02:29:59;;;;;;;1.63;1.52;;;;;;;30.54;77.35;100741.09;4903402;28;70475;-35
2023/09/05 02:32:31;;;;;;;2.92;1.95;;;;;;;30.54;77.15;100735.66;4907076;28;65307;-36
2023/09/05 02:35:01;;;;;;;1.77;1.67;;;;;;;30.55;77.28;100737.31;4918230;28;70151;-36
2023/09/05 02:37:31;;;;;;;2.35;1.70;;;;;;;30.58;77.42;100736.88;4907695;28;66142;-35
2023/09/05 02:40:03;;;;;;;1.90;1.70;;;;;;;30.56;77.60;100720.00;4915732;28;70599;-36
2023/09/05 02:42:33;;;;;;;1.77;1.67;;;;;;;30.62;77.11;100731.81;4888590;28;66284;-37
2023/09/05 02:45:04;;;;;;;2.10;1.63;;;;;;;30.63;76.89;100726.22;4915645;28;70454;-36
2023/09/05 02:47:34;;;;;;;1.80;1.70;;;;;;;30.64;77.05;100714.31;4895911;28;66839;-35
2023/09/05 02:50:07;;;;;;;1.90;1.73;;;;;;;30.58;76.97;100696.25;4887058;28;69367;-36
2023/09/05 02:52:37;;;;;;;2.47;1.50;;;;;;;30.64;77.41;100713.50;4913712;28;65841;-36
2023/09/05 02:55:16;;;;;;;2.05;1.70;;;;;;;30.71;77.10;100715.09;4914718;28;69584;-35
2023/09/05 02:57:46;;;;;;;2.28;1.50;;;;;;;30.72;77.02;100703.19;4893585;28;65934;-35
2023/09/05 03:00:20;;;;;;;1.45;1.35;;;;;;;30.70;76.91;100696.34;4908477;28;70032;-35
2023/09/05 03:02:50;;;;;;;1.50;1.40;;;;;;;30.76;77.29;100700.03;4913325;28;65477;-36
2023/09/05 03:05:20;;;;;;;1.98;1.77;;;;;;;30.79;76.64;100699.63;4914150;28;69070;-35
2023/09/05 03:07:51;;;;;;;;;;;;;;;30.57;77.41;100700.03;4900733;28;66630;-36
2023/09/05 03:10:21;;;;;;;3.50;1.48;;;;;;;30.68;76.87;100683.06;4909596;28;69973;-35
2023/09/05 03:12:51;;;;;;;2.58;1.33;;;;;;;30.79;76.77;100702.34;4898630;28;66135;-36
2023/09/05 03:15:23;;;;;;;2.42;2.03;;;;;;;30.80;76.23;100698.59;4908127;28;70528;-35
2023/09/05 03:17:53;;;;;;;1.85;1.42;;;;;;;30.82;76.72;100699.19;4906354;28;66670;-34
2023/09/05 03:20:25;;;;;;;2.25;1.52;;;;;;;30.73;76.61;100679.69;4899046;28;69814;-34
2023/09/05 03:22:55;;;;;;;2.53;1.70;;;;;;;30.87;76.43;100694.75;4892415;28;68371;-37
2023/09/05 03:25:25;;;;;;;3.13;1.42;;;;;;;30.91;76.29;100697.84;4902760;28;69744;-36
2023/09/05 03:27:56;;;;;;;2.00;1.77;;;;;;;30.78;76.41;100673.56;4900020;28;66531;-40
2023/09/05 03:30:27;;;;;;;3.17;1.73;;;;;;;30.92;75.87;100685.94;4911804;28;70128;-37
2023/09/05 03:32:57;;;;;;;3.65;1.48;;;;;;;30.92;76.32;100675.97;4909376;28;66536;-36
2023/09/05 03:35:27;;;;;;;1.70;1.58;;;;;;;30.93;75.75;100668.66;4901854;28;70321;-37
2023/09/05 03:37:57;;;;;;;1.40;1.30;;;;;;;30.95;76.32;100671.94;4910691;28;65458;-36
2023/09/05 03:40:27;;;;;;;2.85;1.77;;;;;;;30.98;76.27;100665.25;4922820;28;69165;-34
2023/09/05 03:42:58;;;;;;;1.88;1.50;;;;;;;30.97;76.46;100667.13;4892687;28;65953;-35
2023/09/05 03:45:28;;;;;;;3.25;1.90;;;;;;;31.03;75.86;100663.53;4919233;28;70551;-36
2023/09/05 03:48:13;;;;;;;4.85;2.17;;;;;;;31.00;76.54;100663.97;4903931;28;66202;-35
2023/09/05 03:50:44;;;;;;;2.03;1.80;;;;;;;31.00;76.45;100657.75;4895112;28;69454;-35
2023/09/05 03:53:14;;;;;;;2.88;1.73;;;;;;;31.01;76.22;100649.41;4912529;28;66556;-34
2023/09/05 03:55:45;;;;;;;4.00;1.83;;;;;;;30.96;76.76;100640.28;4903483;28;69841;-35
2023/09/05 03:58:16;;;;;;;1.88;1.70;;;;;;;30.96;76.41;100646.53;4913871;28;66513;-36
2023/09/05 04:00:47;;;;;;;2.63;2.00;;;;;;;31.06;76.41;100652.22;4904740;28;70493;-37
2023/09/05 04:03:17;;;;;;;2.75;1.73;;;;;;;31.10;76.29;100650.72;4893827;28;65346;-38
2023/09/05 04:05:48;;;;;;;3.47;2.00;;;;;;;31.10;76.12;100648.03;4888921;28;69060;-36
2023/09/05 04:08:18;;;;;;;2.85;1.75;;;;;;;31.12;75.98;100640.50;4920025;28;65307;-37
2023/09/05 04:10:48;;;;;;;2.28;1.70;;;;;;;31.12;76.35;100634.22;4909910;28;69936;-34
2023/09/05 04:13:18;;;;;;;2.65;1.67;;;;;;;31.15;75.78;100631.09;4903072;28;66271;-36
2023/09/05 04:15:48;;;;;;;1.65;1.50;;;;;;;31.15;76.10;100640.03;4913705;28;70734;-36
2023/09/05 04:18:19;;;;;;;2.63;2.00;;;;;;;31.19;75.69;100645.00;4893794;28;64987;-36
2023/09/05 04:20:57;;;;;;;2.58;1.60;;;;;;;31.19;75.68;100623.34;4912551;28;70196;-36
2023/09/05 04:23:28;;;;;;;2.53;1.50;;;;;;;31.21;75.87;100629.34;4916740;28;66728;-36
2023/09/05 04:26:02;;;;;;;8.73;1.70;;;;;;;31.26;75.27;100634.88;4912726;28;70805;-36
2023/09/05 04:28:32;;;;;;;4.30;1.55;;;;;;;31.19;75.85;100626.03;4901451;28;66098;-37
2023/09/05 04:31:04;;;;;;;2.20;1.80;;;;;;;30.66;75.46;100538.94;4915098;28;70567;-36
2023/09/05 04:33:40;;;;;;;2.58;1.55;;;;;;;31.30;75.41;100630.69;4907196;28;66569;-36
2023/09/05 04:36:10;;;;;;;2.20;1.85;;;;;;;31.33;75.35;100635.66;4893333;28;69800;-35
2023/09/05 04:38:45;;;;;;;2.38;1.80;;;;;;;31.27;75.31;100614.88;4911181;28;65456;-36
2023/09/05 04:41:16;;;;;;;2.35;1.75;;;;;;;31.33;74.24;100608.53;4903816;28;69922;-36
2023/09/05 04:43:46;;;;;;;3.25;1.55;;;;;;;31.52;74.16;100629.16;4903688;28;65453;-36
2023/09/05 04:46:16;;;;;;;2.03;1.27;;;;;;;31.52;73.80;100604.75;4936629;28;69705;-35
2023/09/05 04:48:46;;;;;;;2.90;1.60;;;;;;;31.63;73.32;100613.16;4939178;28;66520;-40
2023/09/05 04:51:17;;;;;;;1.52;1.42;;;;;;;31.69;73.34;100617.66;4933512;28;70217;-36
2023/09/05 04:53:47;;;;;;;2.17;1.42;;;;;;;31.76;73.23;100612.94;4915809;28;66401;-36
2023/09/05 04:56:17;;;;;;;1.67;1.40;;;;;;;31.77;73.04;100610.00;4914795;28;70084;-36
2023/09/05 04:58:49;;;;;;;1.85;1.42;;;;;;;31.82;73.03;100617.44;4900618;28;65584;-36
2023/09/05 05:01:19;;;;;;;2.53;2.00;;;;;;;31.70;73.03;100613.88;4918275;28;70132;-36
2023/09/05 05:03:50;;;;;;;2.45;1.73;;;;;;;31.64;73.01;100598.53;4914364;28;66271;-36
2023/09/05 05:06:21;;;;;;;3.33;1.88;;;;;;;31.54;73.47;100596.41;4908362;28;70292;-36
2023/09/05 05:08:51;;;;;;;3.17;2.00;;;;;;;31.32;73.63;100558.94;4906400;28;66760;-37
2023/09/05 05:11:21;;;;;;;3.83;2.10;;;;;;;31.52;73.60;100591.19;4919340;28;70611;-35
2023/09/05 05:13:51;;;;;;;3.33;1.90;;;;;;;31.55;73.71;100585.31;4932690;28;66203;-37
2023/09/05 05:16:21;;;;;;;2.05;1.88;;;;;;;31.52;74.15;100595.78;4900187;28;70707;-36
2023/09/05 05:18:51;;;;;;;2.40;1.63;;;;;;;31.51;73.92;100591.41;4929305;28;66123;-37
2023/09/05 05:21:21;;;;;;;2.08;1.38;;;;;;;31.45;72.37;100574.19;4923795;28;70048;-35
2023/09/05 05:23:51;;;;;;;2.65;1.48;;;;;;;31.35;70.94;100568.50;4927272;28;66235;-36
2023/09/05 05:26:21;;;;;;;3.38;1.60;;;;;;;31.21;69.79;100567.03;4926276;28;69132;-37
2023/09/05 05:28:51;;;;;;;2.20;1.40;;;;;;;31.11;68.88;100557.56;4928810;28;65367;-34
2023/09/05 05:31:22;;;;;;;1.83;1.40;;;;;;;31.08;68.27;100566.16;4897567;28;70588;-36
2023/09/05 05:33:53;;;;;;;5.03;1.65;;;;;;;30.99;67.25;100555.88;4926910;28;66280;-35
2023/09/05 05:36:23;;;;;;;2.33;1.27;;;;;;;30.95;66.25;100552.78;4932491;28;70137;-36
2023/09/05 05:38:53;;;;;;;2.33;1.30;;;;;;;30.81;65.34;100540.47;4917225;28;65949;-36
2023/09/05 05:41:24;;;;;;;1.80;1.30;;;;;;;30.84;64.63;100545.41;4903920;28;69612;-35
2023/09/05 05:43:56;;;;;;;1.70;1.40;;;;;;;30.41;63.73;100481.38;4911031;28;66220;-35
2023/09/05 05:46:26;;;;;;;6.15;1.40;;;;;;;30.64;62.94;100519.38;4889018;28;70341;-36
2023/09/05 05:48:58;;;;;;;1.20;1.10;;;;;;;30.68;62.23;100520.59;4920328;28;65578;-35
2023/09/05 05:51:31;;;;;;;5.82;1.25;;;;;;;30.60;61.55;100518.22;4927262;28;69691;-35
2023/09/05 05:54:01;;;;;;;1.20;0.93;;;;;;;30.61;61.58;100514.44;4901198;28;65998;-35
2023/09/05 05:56:31;;;;;;;4.88;1.23;;;;;;;30.59;60.92;100507.59;4921703;28;70004;-38
2023/09/05 05:59:01;;;;;;;3.55;1.35;;;;;;;30.57;60.01;100502.41;4921359;28;65600;-37
2023/09/05 06:01:33;;;;;;;1.50;1.00;;;;;;;30.55;59.76;100501.81;4915316;28;70326;-37
2023/09/05 06:04:03;;;;;;;1.52;1.05;;;;;;;30.54;59.21;100505.59;4933174;28;66535;-35
2023/09/05 06:06:36;;;;;;;1.67;1.05;;;;;;;30.51;58.88;100497.91;4923035;28;70207;-36
2023/09/05 06:09:06;;;;;;;4.47;1.30;;;;;;;30.42;58.99;100499.25;4925466;28;66907;-38
2023/09/05 06:11:36;;;;;;;1.58;1.33;;;;;;;30.43;58.50;100500.94;4898160;28;70147;-37
2023/09/05 06:14:06;;;;;;;1.58;1.48;;;;;;;30.33;58.64;100485.22;4922304;28;66496;-36
2023/09/05 06:16:37;;;;;;;1.85;1.73;;;;;;;30.39;57.86;100488.88;4917761;28;70221;-35
2023/09/05 06:19:08;;;;;;;2.30;1.73;;;;;;;30.38;57.40;100481.84;4921391;28;65754;-38
2023/09/05 06:21:38;;;;;;;2.20;2.00;;;;;;;30.33;57.58;100468.16;4915000;28;69697;-36
2023/09/05 06:24:09;;;;;;;2.58;2.38;;;;;;;30.34;57.02;100465.22;4915159;28;66558;-34
2023/09/05 06:26:41;;;;;;;3.42;2.80;;;;;;;30.32;56.79;100455.69;4916391;28;69749;-35
2023/09/05 06:29:10;;;;;;;;;;;;;;;30.04;56.40;100454.31;4924951;28;66209;-37
2023/09/05 06:31:41;;;;;;;2.97;2.78;;;;;;;30.27;56.42;100456.34;4928333;28;69346;-37
2023/09/05 06:34:12;;;;;;;2.83;2.63;;;;;;;30.25;55.86;100463.88;4920132;28;66338;-36
2023/09/05 06:36:42;;;;;;;4.10;2.95;;;;;;;30.22;55.70;100454.31;4925391;28;70238;-38
2023/09/05 06:39:12;;;;;;;3.17;2.88;;;;;;;30.24;55.47;100454.94;4921571;28;66561;-36
2023/09/05 06:41:42;;;;;;;3.17;2.97;;;;;;;30.23;55.51;100437.06;4918146;28;69944;-37
2023/09/05 06:44:12;;;;;;;3.95;3.65;;;;;;;30.23;54.78;100441.66;4913700;28;66622;-37
2023/09/05 06:46:42;;;;;;;3.28;2.92;;;;;;;29.81;54.99;100373.84;4919270;28;69868;-36
2023/09/05 06:49:12;;;;;;;3.60;3.30;;;;;;;30.20;54.37;100436.63;4915410;28;66081;-40
2023/09/05 06:51:43;;;;;;;3.20;3.00;;;;;;;30.22;54.40;100437.28;4931876;28;69389;-37
2023/09/05 06:54:13;;;;;;;3.05;2.85;;;;;;;30.20;54.13;100420.41;4893094;28;65751;-35
2023/09/05 06:56:43;;;;;;;4.03;3.72;;;;;;;30.23;53.78;100434.34;4930679;28;69661;-36
2023/09/05 06:59:17;;;;;;;3.70;3.40;;;;;;;30.24;53.77;100440.59;4904910;28;66034;-38
2023/09/05 07:01:47;;;;;;;3.97;3.60;;;;;;;30.27;53.96;100443.66;4922971;28;69869;-36
2023/09/05 07:04:17;;;;;;;5.07;3.35;;;;;;;30.28;53.92;100431.78;4918326;28;65826;-35
2023/09/05 07:06:48;;;;;;;3.10;2.80;;;;;;;30.25;53.55;100440.34;4904507;28;70023;-37
2023/09/05 07:09:19;;;;;;;3.33;3.00;;;;;;;30.10;53.59;100404.72;4919750;28;66393;-35
2023/09/05 07:11:49;;;;;;;3.67;3.13;;;;;;;30.22;53.41;100442.69;4916191;28;70905;-36
2023/09/05 07:14:19;;;;;;;3.17;2.92;;;;;;;30.23;54.11;100436.22;4926197;28;65349;-35
2023/09/05 07:16:49;;;;;;;2.97;2.70;;;;;;;30.23;53.36;100438.94;4918862;28;69942;-36
2023/09/05 07:19:20;;;;;;;3.10;2.90;;;;;;;30.21;54.28;100427.47;4924222;28;66284;-36
2023/09/05 07:21:50;;;;;;;3.55;3.22;;;;;;;30.02;54.09;100388.78;4920716;28;69779;-35
2023/09/05 07:24:20;;;;;;;5.55;3.50;;;;;;;30.19;54.04;100414.16;4924257;28;66520;-36
2023/09/05 07:26:50;;;;;;;3.03;2.83;;;;;;;30.43;55.99;100404.31;4911392;28;70387;-36
2023/09/05 07:29:20;;;;;;;3.28;3.08;;;;;;;30.50;54.94;100409.63;4918045;28;63958;-36
2023/09/05 07:31:50;;;;;;;6.43;3.30;;;;;;;30.55;54.95;100396.25;4913232;28;70426;-37
2023/09/05 07:34:20;;;;;;;3.55;3.25;;;;;;;30.60;55.08;100388.28;4901115;28;66461;-37
2023/09/05 07:36:51;;;;;;;7.13;3.00;;;;;;;30.58;54.70;100390.38;4916236;28;70113;-37
2023/09/05 07:39:21;;;;;;;4.70;3.20;;;;;;;30.64;54.53;100394.03;4917781;28;66741;-36
2023/09/05 07:41:52;;;;;;;6.07;2.73;;;;;;;30.53;54.11;100371.28;4902743;28;70248;-35
2023/09/05 07:44:22;;;;;;;4.18;3.20;;;;;;;30.65;54.16;100391.13;4913772;28;65521;-37
2023/09/05 07:46:52;;;;;;;2.83;2.53;;;;;;;30.62;53.71;100380.75;4891758;28;69953;-38
2023/09/05 07:49:23;;;;;;;4.00;2.80;;;;;;;30.65;53.31;100380.28;4914913;28;66811;-34
2023/09/05 07:51:57;;;;;;;2.75;2.55;;;;;;;30.67;53.20;100382.75;4918316;28;70063;-37
2023/09/05 07:54:28;;;;;;;7.90;2.60;;;;;;;30.68;52.95;100379.81;4905116;28;66196;-36
2023/09/05 07:56:58;;;;;;;2.47;2.28;;;;;;;30.68;52.85;100381.72;4912268;28;70394;-35
2023/09/05 07:59:28;;;;;;;2.63;2.42;;;;;;;30.67;52.88;100378.19;4923506;28;65023;-35
2023/09/05 08:02:00;;;;;;;4.50;2.80;;;;;;;30.66;52.29;100376.50;4914613;28;70547;-36
2023/09/05 08:04:30;;;;;;;2.50;2.30;;;;;;;30.65;52.72;100369.47;4921071;28;66160;-35
2023/09/05 08:07:00;;;;;;;2.40;2.20;;;;;;;30.67;51.79;100361.09;4901655;28;69668;-34
2023/09/05 08:09:30;;;;;;;2.60;2.40;;;;;;;30.68;52.30;100369.00;4895235;28;65337;-36
2023/09/05 08:12:01;;;;;;;11.15;2.50;;;;;;;30.69;51.78;100365.22;4913008;28;70330;-33
2023/09/05 08:14:32;;;;;;;;;;;;;;;30.41;49.74;100356.91;4917371;28;65967;-34
2023/09/05 08:17:02;;;;;;;2.60;2.40;;;;;;;30.42;52.25;100316.09;4915671;28;70834;-33
2023/09/05 08:19:33;;;;;;;4.97;2.60;;;;;;;30.66;51.93;100338.59;4920681;28;64962;-34
2023/09/05 08:22:05;;;;;;;6.40;2.63;;;;;;;30.69;51.93;100337.31;4918751;28;70328;-35
2023/09/05 08:24:35;;;;;;;7.97;2.63;;;;;;;30.65;51.53;100336.16;4915459;28;66636;-34
2023/09/05 08:27:05;;;;;;;5.88;3.17;;;;;;;30.68;51.62;100336.50;4899923;28;69276;-35
2023/09/05 08:29:36;;;;;;;3.13;2.83;;;;;;;30.68;50.98;100339.22;4913578;28;66556;-34
2023/09/05 08:32:06;;;;;;;3.20;2.72;;;;;;;30.50;51.36;100307.59;4912412;28;70892;-34
2023/09/05 08:34:38;;;;;;;6.05;2.38;;;;;;;30.73;50.15;100342.06;4914386;28;65662;-35
2023/09/05 08:37:09;;;;;;;3.45;2.08;;;;;;;30.74;50.75;100334.75;4909552;28;70204;-35
2023/09/05 08:39:38;;;;;;;3.63;2.50;;;;;;;30.70;50.83;100334.41;4898574;28;66591;-34
2023/09/05 08:42:10;;;;;;;4.03;2.50;;;;;;;30.68;50.36;100332.97;4907500;28;69254;-35
2023/09/05 08:44:41;;;;;;;3.43;3.13;;;;;;;30.69;50.48;100343.56;4910221;28;67019;-34
2023/09/05 08:47:11;;;;;;;3.15;2.53;;;;;;;30.61;49.78;100341.19;4919404;28;69612;-34
2023/09/05 08:49:43;;;;;;;2.55;2.35;;;;;;;30.75;50.99;100347.22;4909431;28;66547;-35
2023/09/05 08:52:14;;;;;;;;;;;;;;;30.51;50.14;100340.94;4891884;28;69991;-36
2023/09/05 08:54:51;;;;;;;2.95;2.53;;;;;;;30.87;51.26;100349.97;4910059;28;65719;-34
2023/09/05 08:57:21;;;;;;;5.22;2.70;;;;;;;30.89;51.54;100359.50;4898624;28;69455;-35
2023/09/05 08:59:56;;;;;;;2.43;2.23;;;;;;;30.87;50.41;100398.72;4911402;28;67093;-34
2023/09/05 09:02:27;;;;;;;5.75;2.60;;;;;;;30.91;50.92;100421.59;4915387;28;69137;-33
2023/09/05 09:04:58;;;;;;;6.32;2.50;;;;;;;30.96;51.12;100434.44;4917314;28;66504;-33
2023/09/05 09:07:29;;;;;;;2.70;2.38;;;;;;;30.92;51.71;100453.03;4916294;28;69036;-34
2023/09/05 09:10:00;;;;;;;2.80;2.60;;;;;;;30.91;52.50;100444.06;4888583;28;68422;-33
2023/09/05 09:12:31;;;;;;;3.65;2.67;;;;;;;31.01;53.97;100443.53;4903270;28;69455;-34
2023/09/05 09:15:09;;;;;;;3.13;2.50;;;;;;;31.13;55.22;100444.38;4905584;28;66518;-33
2023/09/05 09:17:45;;;;;;;5.05;2.67;;;;;;;31.25;57.08;100449.81;4876636;29;69402;-34
2023/09/05 09:20:18;;;;;;;3.33;2.95;;;;;;;31.35;58.41;100443.81;4900481;28;66438;-34
2023/09/05 09:22:52;;;;;;;2.92;2.70;;;;;;;31.43;59.18;100442.69;4904140;28;70227;-34
2023/09/05 09:25:23;;;;;;;3.13;2.83;;;;;;;31.50;59.63;100449.63;4897951;28;65195;-34
2023/09/05 09:27:54;;;;;;;5.28;2.83;;;;;;;31.57;60.20;100446.81;4906659;28;70482;-35
2023/09/05 09:30:27;;;;;;;4.20;3.10;;;;;;;31.59;61.08;100450.94;4905337;28;65299;-36
2023/09/05 09:32:57;;;;;;;5.18;2.63;;;;;;;31.64;61.25;100454.81;4901991;28;70511;-35
2023/09/05 09:35:29;;;;;;;3.22;2.92;;;;;;;31.65;62.07;100448.31;4896098;28;66347;-34
2023/09/05 09:38:01;;;;;;;4.28;2.70;;;;;;;31.69;62.24;100449.53;4907005;28;69385;-35
2023/09/05 09:40:38;;;;;;;3.63;3.33;;;;;;;31.69;63.32;100438.69;4920806;28;66644;-35
2023/09/05 09:43:09;;;;;;;3.55;3.25;;;;;;;31.52;68.05;100449.41;4910683;28;69881;-35
2023/09/05 09:45:39;;;;;;;3.80;3.50;;;;;;;31.36;70.18;100445.50;4870849;29;65258;-34
2023/09/05 09:48:14;;;;;;;7.15;3.60;;;;;;;31.37;70.63;100458.81;4905082;28;70250;-35
2023/09/05 09:50:45;;;;;;;5.10;3.63;;;;;;;30.99;72.42;100402.31;4907080;28;66242;-34
2023/09/05 09:53:22;;;;;;;3.45;3.15;;;;;;;31.29;72.50;100461.03;4914947;28;68639;-34
2023/09/05 09:55:53;;;;;;;3.60;2.90;;;;;;;31.28;73.36;100443.09;4901491;28;65709;-33
2023/09/05 09:58:26;;;;;;;4.63;3.50;;;;;;;31.07;73.27;100418.22;4904338;28;70155;-35
2023/09/05 10:01:01;;;;;;;3.70;3.30;;;;;;;31.21;74.06;100447.81;4891150;28;67663;-36
2023/09/05 10:03:31;;;;;;;3.42;3.13;;;;;;;31.26;74.59;100447.91;4902909;28;70238;-34
2023/09/05 10:06:04;;;;;;;4.72;2.92;;;;;;;31.21;74.23;100442.41;4898081;28;65771;-35
2023/09/05 10:08:35;;;;;;;2.97;2.72;;;;;;;31.22;74.67;100461.13;4901423;28;70142;-38
2023/09/05 10:11:14;;;;;;;4.88;3.22;;;;;;;31.21;74.82;100469.50;4922245;28;66192;-33
2023/09/05 10:13:58;;;;;;;3.75;3.45;;;;;;;31.16;74.60;100462.88;4920577;28;70487;-35
2023/09/05 10:16:28;;;;;;;2.95;2.75;;;;;;;31.14;75.24;100464.97;4902654;28;66350;-37
2023/09/05 10:19:00;;;;;;;3.38;3.08;;;;;;;31.07;75.64;100458.84;4926069;28;70065;-36
2023/09/05 10:21:32;;;;;;;3.70;3.40;;;;;;;31.05;75.67;100452.84;4921252;28;66207;-39
2023/09/05 10:24:05;;;;;;;4.30;3.60;;;;;;;31.03;76.32;100441.41;4914359;28;69558;-37
2023/09/05 10:26:36;;;;;;;5.28;3.95;;;;;;;31.07;75.90;100453.44;4921221;28;66424;-37
2023/09/05 10:29:34;;;;;;;7.15;3.22;;;;;;;31.06;76.47;100468.00;4904677;28;70041;-37
2023/09/05 10:32:04;;;;;;;11.25;3.60;;;;;;;31.11;76.04;100460.03;4913512;28;66817;-36
2023/09/05 10:34:58;;;;;;;8.15;4.10;;;;;;;31.04;76.20;100474.75;4917519;28;70428;-36
2023/09/05 10:37:34;;;;;;;4.53;4.05;;;;;;;31.08;76.43;100471.31;4916020;28;66941;-36
2023/09/05 10:40:10;;;;;;;4.38;4.07;;;;;;;30.74;76.87;100424.09;4917998;28;69227;-38
2023/09/05 10:42:51;;;;;;;8.07;4.53;;;;;;;31.00;76.50;100463.53;4918911;28;66765;-37
2023/09/05 10:45:22;;;;;;;4.95;4.55;;;;;;;31.04;77.02;100477.47;4900779;28;70033;-35
2023/09/05 10:47:55;;;;;;;8.50;4.70;;;;;;;31.02;77.31;100472.25;4913481;28;66222;-36
2023/09/05 10:50:27;;;;;;;4.57;4.28;;;;;;;31.03;77.37;100478.50;4925050;28;69335;-36
2023/09/05 10:53:23;;;;;;;5.45;4.85;;;;;;;30.96;78.26;100496.75;4920081;28;66392;-37
2023/09/05 10:55:54;;;;;;;5.57;5.03;;;;;;;31.04;78.00;100502.66;4924569;28;69672;-38
2023/09/05 10:58:43;;;;;;;9.43;5.07;;;;;;;30.97;78.04;100506.50;4922777;28;66587;-36
2023/09/05 11:01:32;;;;;;;5.78;4.30;;;;;;;30.98;78.74;100506.28;4914598;28;70246;-37
2023/09/05 11:04:07;;;;;;;14.90;5.00;;;;;;;31.04;77.96;100508.06;4928438;28;66818;-35
2023/09/05 11:06:39;;;;;;;19.60;5.15;;;;;;;30.90;79.00;100490.38;4906722;28;69468;-34
2023/09/05 11:09:09;;;;;;;9.30;4.60;;;;;;;30.94;79.14;100508.63;4919844;28;65270;-36
2023/09/05 11:11:43;;;;;;;6.65;4.65;;;;;;;31.00;79.08;100522.28;4918518;28;70310;-36
2023/09/05 11:14:13;;;;;;;6.60;5.10;;;;;;;30.96;78.71;100516.53;4921243;28;66018;-37
2023/09/05 11:16:47;;;;;;;6.97;4.95;;;;;;;30.99;79.11;100515.25;4917241;28;70121;-36
2023/09/05 11:19:38;;;;;;;5.30;4.80;;;;;;;30.92;79.17;100528.84;4928299;28;65342;-36
2023/09/05 11:22:22;;;;;;;5.60;4.82;;;;;;;30.86;79.88;100524.38;4918005;28;69265;-35
2023/09/05 11:24:58;;;;;;;7.47;5.63;;;;;;;30.96;80.31;100551.75;4928190;28;65954;-36
2023/09/05 11:27:29;;;;;;;6.30;5.70;;;;;;;30.98;79.98;100552.34;4923324;28;69437;-35
2023/09/05 11:30:02;;;;;;;6.18;5.68;;;;;;;30.94;81.19;100557.38;4921811;28;65120;-35
2023/09/05 11:32:34;;;;;;;6.15;5.65;;;;;;;30.74;81.10;100513.44;4923150;28;70407;-36
2023/09/05 11:35:05;;;;;;;7.60;5.57;;;;;;;30.93;81.14;100554.91;4917340;28;66841;-35
2023/09/05 11:37:36;;;;;;;6.38;5.78;;;;;;;30.91;81.36;100551.59;4925648;28;69660;-39
2023/09/05 11:40:11;;;;;;;8.90;5.65;;;;;;;30.92;81.03;100564.06;4929526;28;66037;-37
2023/09/05 11:42:42;;;;;;;6.20;5.57;;;;;;;30.93;81.04;100563.03;4927145;28;70108;-36
2023/09/05 11:45:19;;;;;;;6.60;5.93;;;;;;;30.91;81.54;100565.13;4898976;28;66546;-37
2023/09/05 11:47:51;;;;;;;6.55;5.38;;;;;;;30.93;80.71;100561.13;4925145;28;70358;-36